createdAt,value
2022-08-30T00:01:29.024Z,15.90
2022-08-30T00:06:30.582Z,15.89
2022-08-30T00:11:32.033Z,15.94
2022-08-30T00:16:33.470Z,15.58
2022-08-30T00:21:34.955Z,15.38
2022-08-30T00:26:36.369Z,15.66
2022-08-30T00:31:37.960Z,15.76
2022-08-30T00:36:39.413Z,15.88
2022-08-30T00:41:41.043Z,15.69
2022-08-30T00:46:42.808Z,15.87
2022-08-30T00:51:44.658Z,15.54
2022-08-30T00:56:48.850Z,15.80
2022-08-30T01:01:50.812Z,15.56
2022-08-30T01:06:53.028Z,15.63
2022-08-30T01:11:54.474Z,15.69
2022-08-30T01:16:57.306Z,15.74
2022-08-30T01:22:05.563Z,15.51
2022-08-30T01:27:06.975Z,15.51
2022-08-30T01:32:08.495Z,15.34
2022-08-30T01:37:09.975Z,15.02
2022-08-30T01:42:11.517Z,15.36
2022-08-30T01:47:13.715Z,15.25
2022-08-30T01:52:16.304Z,14.88
2022-08-30T01:57:20.365Z,15.02
2022-08-30T02:02:24.918Z,15.12
2022-08-30T02:07:26.670Z,14.97
2022-08-30T02:12:28.150Z,14.66
2022-08-30T02:17:29.655Z,14.71
2022-08-30T02:22:31.243Z,14.79
2022-08-30T02:27:32.806Z,14.77
2022-08-30T02:32:34.487Z,14.65
2022-08-30T02:37:36.027Z,14.52
2022-08-30T02:42:37.569Z,14.54
2022-08-30T02:47:40.863Z,14.75
2022-08-30T02:52:45.232Z,14.79
2022-08-30T02:57:49.579Z,14.52
2022-08-30T03:02:51.030Z,14.75
2022-08-30T03:07:52.481Z,14.64
2022-08-30T03:12:55.090Z,14.62
2022-08-30T03:17:56.835Z,14.66
2022-08-30T03:22:58.327Z,14.54
2022-08-30T03:28:00.463Z,14.68
2022-08-30T03:33:03.137Z,14.44
2022-08-30T03:38:05.158Z,14.40
2022-08-30T03:43:06.660Z,14.43
2022-08-30T03:48:08.144Z,14.32
2022-08-30T03:53:09.734Z,14.20
2022-08-30T03:58:11.405Z,14.19
2022-08-30T04:03:13.016Z,14.43
2022-08-30T04:08:14.510Z,14.14
2022-08-30T04:13:16.568Z,14.06
2022-08-30T04:18:18.186Z,14.32
2022-08-30T04:23:20.218Z,14.06
2022-08-30T04:28:22.471Z,14.07
2022-08-30T04:33:23.954Z,14.17
2022-08-30T04:38:29.848Z,14.15
2022-08-30T04:43:31.883Z,14.21
2022-08-30T04:48:33.744Z,13.94
2022-08-30T04:53:35.820Z,13.99
2022-08-30T04:58:37.632Z,14.11
2022-08-30T05:03:39.055Z,14.17
2022-08-30T05:08:40.966Z,14.29
2022-08-30T05:13:47.974Z,14.63
2022-08-30T05:18:51.113Z,14.69
2022-08-30T05:23:58.649Z,15.46
2022-08-30T05:29:00.209Z,15.81
2022-08-30T05:34:01.933Z,16.16
2022-08-30T05:39:07.917Z,16.85
2022-08-30T05:44:10.741Z,18.63
2022-08-30T05:49:12.222Z,19.08
2022-08-30T05:54:15.842Z,19.43
2022-08-30T05:59:17.420Z,20.89
2022-08-30T06:04:19.029Z,21.12
2022-08-30T06:09:20.658Z,22.35
2022-08-30T06:14:22.121Z,22.60
2022-08-30T06:19:23.729Z,23.23
2022-08-30T06:24:41.120Z,23.33
2022-08-30T06:29:46.665Z,23.49
2022-08-30T06:34:48.733Z,23.11
2022-08-30T06:39:50.164Z,23.34
2022-08-30T06:44:51.704Z,23.37
2022-08-30T06:49:53.206Z,23.28
2022-08-30T06:54:55.182Z,24.50
2022-08-30T06:59:57.764Z,24.08
2022-08-30T07:04:59.345Z,25.03
2022-08-30T07:10:06.707Z,26.41
2022-08-30T07:15:08.979Z,26.11
2022-08-30T07:20:10.555Z,24.49
2022-08-30T07:25:12.537Z,26.40
2022-08-30T07:30:14.086Z,27.50
2022-08-30T07:35:15.971Z,30.01
2022-08-30T07:40:17.549Z,28.62
2022-08-30T07:45:19.142Z,31.47
2022-08-30T07:50:20.692Z,34.42
2022-08-30T07:55:22.179Z,34.14
2022-08-30T08:00:23.627Z,31.62
2022-08-30T08:05:25.182Z,28.74
2022-08-30T08:10:26.610Z,29.60
2022-08-30T08:15:28.784Z,28.15
2022-08-30T08:20:31.361Z,26.66
2022-08-30T08:25:33.074Z,25.71
2022-08-30T08:30:37.063Z,25.29
2022-08-30T08:35:39.079Z,24.62
2022-08-30T08:41:19.894Z,24.72
2022-08-30T08:46:36.693Z,24.80
2022-08-30T08:51:39.869Z,25.01
2022-08-30T08:56:41.582Z,25.63
2022-08-30T09:01:43.537Z,25.89
2022-08-30T09:07:06.798Z,24.73
2022-08-30T09:12:11.299Z,25.65
2022-08-30T09:17:15.010Z,25.70
2022-08-30T09:22:46.892Z,26.08
2022-08-30T09:27:51.975Z,26.10
2022-08-30T09:33:03.943Z,26.20
2022-08-30T09:38:07.423Z,26.15
2022-08-30T09:43:16.543Z,26.28
2022-08-30T09:48:26.912Z,25.71
2022-08-30T09:53:34.668Z,25.94
2022-08-30T09:59:05.089Z,26.57
2022-08-30T10:04:23.362Z,26.17
2022-08-30T10:09:55.420Z,26.51
2022-08-30T10:15:10.401Z,26.45
2022-08-30T10:20:31.210Z,26.46
2022-08-30T10:25:35.755Z,26.36
2022-08-30T10:30:40.247Z,26.45
2022-08-30T10:35:50.567Z,26.67
2022-08-30T10:41:08.471Z,27.21
2022-08-30T10:46:19.751Z,26.69
2022-08-30T10:51:50.137Z,27.06
2022-08-30T10:56:53.926Z,26.87
2022-08-30T11:02:27.539Z,27.26
2022-08-30T11:07:59.430Z,27.27
2022-08-30T11:13:12.646Z,27.12
2022-08-30T11:18:14.666Z,27.16
2022-08-30T11:23:18.980Z,27.08
2022-08-30T11:28:52.694Z,27.38
2022-08-30T11:33:56.794Z,27.82
2022-08-30T11:39:08.866Z,27.53
2022-08-30T11:44:22.439Z,27.59
2022-08-30T11:49:32.086Z,27.65
2022-08-30T11:54:34.244Z,27.30
2022-08-30T12:00:12.410Z,26.79
2022-08-30T12:05:35.862Z,26.49
2022-08-30T12:10:41.181Z,26.81
2022-08-30T12:15:58.621Z,26.88
2022-08-30T12:21:05.066Z,26.98
2022-08-30T12:26:12.755Z,27.18
2022-08-30T12:31:19.159Z,26.86
2022-08-30T12:36:55.499Z,26.88
2022-08-30T12:42:11.255Z,26.44
2022-08-30T12:47:30.109Z,26.23
2022-08-30T12:52:38.516Z,26.11
2022-08-30T12:57:42.662Z,26.30
2022-08-30T13:02:50.528Z,26.20
2022-08-30T13:07:52.041Z,26.33
2022-08-30T13:13:05.991Z,26.94
2022-08-30T13:18:27.558Z,27.02
2022-08-30T13:23:29.023Z,27.11
2022-08-30T13:28:30.515Z,27.22
2022-08-30T13:33:32.035Z,26.91
2022-08-30T13:38:33.994Z,26.70
2022-08-30T13:44:09.468Z,26.49
2022-08-30T13:49:04.281Z,26.46
2022-08-30T13:54:06.123Z,26.80
2022-08-30T13:59:07.860Z,26.95
2022-08-30T14:04:13.661Z,26.67
2022-08-30T14:09:17.784Z,26.46
2022-08-30T14:14:39.074Z,26.26
2022-08-30T14:19:41.991Z,26.28
2022-08-30T14:24:43.595Z,26.97
2022-08-30T14:29:45.080Z,26.99
2022-08-30T14:34:47.833Z,26.83
2022-08-30T14:39:49.919Z,26.88
2022-08-30T14:44:56.544Z,26.57
2022-08-30T14:49:58.504Z,26.48
2022-08-30T14:55:08.677Z,26.53
2022-08-30T15:00:11.909Z,26.61
2022-08-30T15:05:13.397Z,26.86
2022-08-30T15:10:15.425Z,26.76
2022-08-30T15:15:20.355Z,26.60
2022-08-30T15:20:21.985Z,26.34
2022-08-30T15:25:23.626Z,26.19
2022-08-30T15:30:25.278Z,26.22
2022-08-30T15:35:26.889Z,26.23
2022-08-30T15:40:28.453Z,26.19
2022-08-30T15:45:30.119Z,26.39
2022-08-30T15:50:31.632Z,26.77
2022-08-30T15:55:33.233Z,26.27
2022-08-30T16:00:35.686Z,26.02
2022-08-30T16:05:38.029Z,26.05
2022-08-30T16:10:40.361Z,26.07
2022-08-30T16:15:44.820Z,25.99
2022-08-30T16:20:46.289Z,25.83
2022-08-30T16:25:47.734Z,25.72
2022-08-30T16:30:49.299Z,25.67
2022-08-30T16:35:53.674Z,25.65
2022-08-30T16:40:55.560Z,25.61
2022-08-30T16:46:06.385Z,25.41
2022-08-30T16:51:13.994Z,25.17
2022-08-30T16:56:21.454Z,25.33
2022-08-30T17:01:25.966Z,25.48
2022-08-30T17:06:27.630Z,25.25
2022-08-30T17:11:29.091Z,25.05
2022-08-30T17:16:30.884Z,24.96
2022-08-30T17:21:33.205Z,24.83
2022-08-30T17:26:37.087Z,24.79
2022-08-30T17:31:38.594Z,24.47
2022-08-30T17:36:40.158Z,24.34
2022-08-30T17:41:49.985Z,24.47
2022-08-30T17:46:52.455Z,24.53
2022-08-30T17:51:56.814Z,24.67
2022-08-30T17:56:58.941Z,24.55
2022-08-30T18:02:01.900Z,24.48
2022-08-30T18:07:03.694Z,24.21
2022-08-30T18:12:05.484Z,24.33
2022-08-30T18:17:08.523Z,23.87
2022-08-30T18:22:10.734Z,23.54
2022-08-30T18:27:12.243Z,23.34
2022-08-30T18:32:15.091Z,23.07
2022-08-30T18:37:16.872Z,22.88
2022-08-30T18:42:18.513Z,22.67
2022-08-30T18:47:23.189Z,22.44
2022-08-30T18:52:24.998Z,22.37
2022-08-30T18:57:27.363Z,22.10
2022-08-30T19:02:29.772Z,22.10
2022-08-30T19:07:34.546Z,22.08
2022-08-30T19:12:38.635Z,21.99
2022-08-30T19:17:43.095Z,21.77
2022-08-30T19:23:09.112Z,21.76
2022-08-30T19:28:07.487Z,21.62
2022-08-30T19:33:09.082Z,21.44
2022-08-30T19:38:13.330Z,21.48
2022-08-30T19:43:14.785Z,21.38
2022-08-30T19:48:22.357Z,21.03
2022-08-30T19:53:24.072Z,20.99
2022-08-30T19:58:26.088Z,21.02
2022-08-30T20:03:27.600Z,20.85
2022-08-30T20:08:29.142Z,20.72
2022-08-30T20:13:30.653Z,20.66
2022-08-30T20:18:35.756Z,20.74
2022-08-30T20:23:37.942Z,20.78
2022-08-30T20:28:42.154Z,20.73
2022-08-30T20:33:43.923Z,20.71
2022-08-30T20:38:45.386Z,20.74
2022-08-30T20:43:47.325Z,20.52
2022-08-30T20:48:49.092Z,20.63
2022-08-30T20:53:50.528Z,20.51
2022-08-30T20:58:51.980Z,20.58
2022-08-30T21:03:53.844Z,20.43
2022-08-30T21:08:55.305Z,20.44
2022-08-30T21:13:56.769Z,20.28
2022-08-30T21:18:58.342Z,20.20
2022-08-30T21:24:02.532Z,20.25
2022-08-30T21:29:04.057Z,20.33
2022-08-30T21:34:06.444Z,20.39
2022-08-30T21:39:08.925Z,20.25
2022-08-30T21:44:14.532Z,20.16
2022-08-30T21:49:18.994Z,20.24
2022-08-30T21:54:20.510Z,20.20
2022-08-30T21:59:22.037Z,20.29
2022-08-30T22:04:26.341Z,20.16
2022-08-30T22:09:28.037Z,20.12
2022-08-30T22:14:31.134Z,20.04
2022-08-30T22:19:33.568Z,19.99
2022-08-30T22:24:35.486Z,19.77
2022-08-30T22:29:36.921Z,19.95
2022-08-30T22:34:38.425Z,19.80
2022-08-30T22:39:39.861Z,19.72
2022-08-30T22:44:41.321Z,19.86
2022-08-30T22:49:42.789Z,19.84
2022-08-30T22:54:44.233Z,19.61
2022-08-30T22:59:45.711Z,19.68
2022-08-30T23:04:47.197Z,19.72
2022-08-30T23:09:48.652Z,19.75
2022-08-30T23:14:50.112Z,19.76
2022-08-30T23:19:51.552Z,19.76
2022-08-30T23:24:53.915Z,19.72
2022-08-30T23:29:55.852Z,19.68
2022-08-30T23:34:57.348Z,19.66
2022-08-30T23:39:58.852Z,19.75
2022-08-30T23:45:00.376Z,19.64
2022-08-30T23:50:01.869Z,19.63
2022-08-30T23:55:04.237Z,19.60
